createdAt,value
2023-09-23T00:02:22.976Z,11.43
2023-09-23T00:06:27.247Z,11.47
2023-09-23T00:10:32.404Z,11.50
2023-09-23T00:14:36.316Z,11.33
2023-09-23T00:18:41.404Z,11.00
2023-09-23T00:22:46.557Z,10.90
2023-09-23T00:26:50.259Z,11.27
2023-09-23T00:30:54.632Z,12.07
2023-09-23T00:35:00.694Z,10.30
2023-09-23T00:39:10.586Z,11.97
2023-09-23T00:43:14.599Z,12.60
2023-09-23T00:47:19.220Z,10.20
2023-09-23T00:51:24.642Z,12.70
2023-09-23T00:55:32.239Z,11.30
2023-09-23T00:59:36.812Z,12.30
2023-09-23T01:03:41.624Z,11.80
2023-09-23T01:07:50.943Z,10.30
2023-09-23T01:11:56.053Z,12.17
2023-09-23T01:16:00.100Z,12.20
2023-09-23T01:20:05.832Z,11.23
2023-09-23T01:24:10.969Z,11.37
2023-09-23T01:28:15.054Z,11.90
2023-09-23T01:32:36.165Z,11.67
2023-09-23T01:36:40.395Z,12.10
2023-09-23T01:40:46.179Z,11.40
2023-09-23T01:44:51.492Z,11.13
2023-09-23T01:48:56.739Z,10.37
2023-09-23T01:53:02.577Z,12.03
2023-09-23T01:57:07.545Z,11.57
2023-09-23T02:01:11.355Z,9.80
2023-09-23T02:05:15.337Z,11.10
2023-09-23T02:09:19.024Z,12.40
2023-09-23T02:13:24.243Z,10.27
2023-09-23T02:17:27.735Z,11.20
2023-09-23T02:21:31.669Z,10.33
2023-09-23T02:25:35.418Z,12.13
2023-09-23T02:29:42.154Z,11.70
2023-09-23T02:33:45.828Z,11.57
2023-09-23T02:37:50.874Z,10.13
2023-09-23T02:41:54.487Z,11.60
2023-09-23T02:46:01.746Z,10.33
2023-09-23T02:50:10.755Z,10.70
2023-09-23T02:54:19.248Z,9.90
2023-09-23T02:58:24.156Z,10.90
2023-09-23T03:02:32.464Z,10.90
2023-09-23T03:06:39.613Z,11.47
2023-09-23T03:10:46.174Z,11.47
2023-09-23T03:14:53.137Z,11.70
2023-09-23T03:19:11.912Z,10.90
2023-09-23T03:23:15.833Z,12.33
2023-09-23T03:27:19.730Z,11.07
2023-09-23T03:31:25.249Z,10.50
2023-09-23T03:35:31.764Z,10.60
2023-09-23T03:39:35.355Z,12.40
2023-09-23T03:43:39.255Z,11.13
2023-09-23T03:47:42.744Z,13.57
2023-09-23T03:51:47.931Z,12.33
2023-09-23T03:55:51.888Z,11.60
2023-09-23T04:00:00.697Z,12.30
2023-09-23T04:04:04.481Z,11.97
2023-09-23T04:08:10.818Z,11.77
2023-09-23T04:12:42.458Z,12.13
2023-09-23T04:16:56.291Z,11.40
2023-09-23T04:21:13.515Z,12.73
2023-09-23T04:25:22.230Z,11.17
2023-09-23T04:29:27.105Z,10.83
2023-09-23T04:33:33.160Z,9.93
2023-09-23T04:37:38.714Z,8.33
2023-09-23T04:41:43.950Z,8.00
2023-09-23T04:45:47.700Z,7.37
2023-09-23T04:49:51.590Z,7.57
2023-09-23T06:30:17.188Z,0.83
2023-09-23T06:34:25.930Z,1.03
2023-09-23T06:38:31.373Z,0.83
2023-09-23T06:42:45.984Z,1.50
2023-09-23T06:46:55.012Z,0.97
2023-09-23T07:08:19.359Z,1.57
2023-09-23T07:12:40.547Z,1.43
2023-09-23T07:16:47.343Z,1.37
2023-09-23T07:20:55.088Z,1.07
2023-09-23T07:25:03.127Z,1.50
2023-09-23T07:29:08.158Z,1.03
2023-09-23T07:33:12.234Z,1.23
2023-09-23T07:37:16.523Z,0.80
2023-09-23T07:41:25.849Z,1.30
2023-09-23T07:45:30.661Z,1.20
2023-09-23T07:49:43.796Z,1.30
2023-09-23T07:53:48.298Z,1.47
2023-09-23T07:57:57.236Z,1.10
2023-09-23T08:02:01.524Z,1.40
2023-09-23T08:06:06.276Z,1.07
2023-09-23T08:10:10.584Z,1.23
2023-09-23T08:14:16.242Z,1.20
2023-09-23T08:18:20.115Z,1.17
2023-09-23T08:22:24.109Z,1.47
2023-09-23T08:32:13.222Z,2.50
2023-09-23T09:03:47.163Z,1.50
2023-09-23T09:07:53.658Z,2.17
2023-09-23T09:11:59.764Z,2.40
2023-09-23T09:16:07.796Z,1.70
2023-09-23T09:20:16.503Z,2.00
2023-09-23T09:24:20.033Z,2.40
2023-09-23T09:28:24.408Z,2.00
2023-09-23T09:32:32.125Z,1.67
2023-09-23T09:36:40.737Z,2.57
2023-09-23T09:40:45.626Z,2.10
2023-09-23T09:49:53.449Z,1.93
2023-09-23T10:03:14.998Z,2.70
2023-09-23T11:22:45.637Z,2.73
2023-09-23T11:26:49.870Z,2.30
2023-09-23T11:30:54.713Z,2.10
2023-09-23T11:34:58.749Z,1.63
2023-09-23T11:39:03.758Z,1.70
2023-09-23T11:43:07.483Z,1.73
2023-09-23T11:47:11.607Z,1.53
2023-09-23T12:01:25.802Z,2.00
2023-09-23T12:05:31.552Z,1.37
2023-09-23T12:09:37.002Z,1.70
2023-09-23T12:13:42.500Z,1.97
2023-09-23T12:17:49.005Z,1.63
2023-09-23T12:21:57.748Z,1.30
2023-09-23T12:26:02.000Z,1.37
2023-09-23T12:30:06.688Z,1.77
2023-09-23T12:34:15.816Z,1.83
2023-09-23T12:38:19.518Z,2.13
2023-09-23T12:42:24.778Z,1.80
2023-09-23T12:46:29.242Z,2.10
2023-09-23T12:50:35.172Z,2.53
2023-09-23T12:54:38.946Z,2.80
2023-09-23T12:58:42.524Z,2.10
2023-09-23T13:02:46.657Z,2.03
2023-09-23T13:06:52.597Z,1.90
2023-09-23T13:10:56.388Z,2.00
2023-09-23T13:14:59.899Z,2.00
2023-09-23T13:19:03.672Z,1.80
2023-09-23T13:23:09.791Z,1.50
2023-09-23T13:27:14.289Z,1.70
2023-09-23T13:31:18.349Z,2.00
2023-09-23T13:35:25.387Z,1.77
2023-09-23T13:39:44.869Z,3.50
2023-09-23T13:43:49.481Z,2.27
2023-09-23T13:48:04.411Z,2.33
2023-09-23T13:57:16.919Z,1.87
2023-09-23T14:01:22.159Z,2.07
2023-09-23T14:05:26.237Z,1.60
2023-09-23T14:09:32.358Z,1.97
2023-09-23T14:13:40.963Z,1.60
2023-09-23T14:17:47.846Z,2.20
2023-09-23T14:21:52.064Z,1.17
2023-09-23T14:25:56.481Z,1.73
2023-09-23T14:34:16.619Z,2.07
2023-09-23T14:38:25.733Z,1.70
2023-09-23T14:42:32.008Z,1.40
2023-09-23T14:46:51.146Z,2.07
2023-09-23T14:50:55.575Z,1.63
2023-09-23T14:55:03.188Z,2.17
2023-09-23T14:59:09.319Z,2.13
2023-09-23T15:03:13.951Z,2.33
2023-09-23T15:07:19.784Z,2.07
2023-09-23T15:11:25.586Z,2.10
2023-09-23T15:15:30.804Z,1.70
2023-09-23T15:19:34.495Z,2.87
2023-09-23T15:23:39.769Z,2.20
2023-09-23T15:27:45.458Z,1.90
2023-09-23T15:31:57.811Z,2.53
2023-09-23T15:36:01.964Z,2.40
2023-09-23T15:40:23.759Z,3.30
2023-09-23T15:44:31.189Z,2.90
2023-09-23T15:48:35.675Z,3.20
2023-09-23T15:52:40.121Z,3.03
2023-09-23T15:56:43.821Z,3.20
2023-09-23T16:00:49.861Z,2.83
2023-09-23T16:04:54.314Z,3.50
2023-09-23T16:08:58.620Z,3.23
2023-09-23T16:13:05.470Z,3.20
2023-09-23T16:21:45.810Z,3.00
2023-09-23T16:25:51.999Z,3.87
2023-09-23T16:29:57.013Z,3.77
2023-09-23T16:34:04.915Z,3.20
2023-09-23T16:38:11.989Z,3.17
2023-09-23T16:42:16.124Z,4.70
2023-09-23T16:46:22.406Z,4.07
2023-09-23T16:50:30.332Z,4.10
2023-09-23T16:54:35.013Z,4.13
2023-09-23T16:58:40.119Z,4.03
2023-09-23T17:02:44.316Z,3.87
2023-09-23T17:06:49.735Z,4.40
2023-09-23T17:10:54.222Z,4.70
2023-09-23T17:14:59.271Z,4.93
2023-09-23T17:19:04.809Z,4.97
2023-09-23T17:23:15.616Z,4.33
2023-09-23T17:27:22.016Z,4.23
2023-09-23T17:31:28.040Z,4.90
2023-09-23T17:35:36.368Z,6.10
2023-09-23T17:39:43.378Z,5.10
2023-09-23T17:43:49.892Z,5.67
2023-09-23T17:47:55.114Z,6.40
2023-09-23T17:52:00.938Z,6.50
2023-09-23T17:56:08.730Z,6.67
2023-09-23T18:00:15.948Z,7.30
2023-09-23T18:04:22.506Z,6.40
2023-09-23T18:08:28.618Z,5.50
2023-09-23T18:12:35.040Z,5.50
2023-09-23T18:16:40.731Z,5.63
2023-09-23T18:20:46.878Z,8.80
2023-09-23T18:24:56.400Z,9.07
2023-09-23T18:29:05.962Z,6.70
2023-09-23T18:33:13.248Z,7.50
2023-09-23T18:37:18.931Z,6.77
2023-09-23T18:41:34.900Z,4.53
2023-09-23T18:45:47.556Z,1.60
2023-09-23T18:49:53.315Z,1.70
2023-09-23T18:54:00.934Z,1.90
2023-09-23T18:58:09.955Z,1.70
2023-09-23T19:06:51.333Z,1.20
2023-09-23T19:11:18.418Z,1.47
2023-09-23T19:28:45.897Z,1.00
2023-09-23T19:32:51.691Z,1.07
2023-09-23T19:36:59.884Z,1.27
2023-09-23T19:41:05.654Z,1.53
2023-09-23T19:45:19.529Z,1.37
2023-09-23T19:49:24.957Z,1.30
2023-09-23T19:53:30.232Z,1.60
2023-09-23T19:57:37.330Z,1.97
2023-09-23T20:01:45.433Z,1.90
2023-09-23T20:05:51.349Z,1.80
2023-09-23T20:09:56.327Z,1.53
2023-09-23T20:14:01.690Z,1.60
2023-09-23T20:18:09.302Z,1.80
2023-09-23T20:22:14.442Z,2.80
2023-09-23T20:26:18.724Z,2.40
2023-09-23T20:30:24.593Z,2.67
